Time;durP1;ratioP1;P1;durP2;ratioP2;P2;SDS_P1;SDS_P2;PMS_P1;PMS_P2;Temp;Humidity;BMP_temperature;BMP_pressure;BME280_temperature;BME280_humidity;BME280_pressure;Samples;Min_cycle;Max_cycle;Signal;HPM_P1;HPM_P2
2022/01/16 00:04:17;;;;;;;58.58;43.33;;;7.60;73.10;;;;;;5014950;28;20041;-68
2022/01/16 00:06:45;;;;;;;57.22;44.08;;;7.50;73.00;;;;;;5014851;28;20399;-66
2022/01/16 00:09:11;;;;;;;58.40;42.63;;;7.50;73.60;;;;;;5014800;28;20033;-66
2022/01/16 00:11:38;;;;;;;60.08;43.72;;;7.40;74.10;;;;;;5014899;28;20045;-66
2022/01/16 00:14:06;;;;;;;59.13;42.67;;;7.40;74.10;;;;;;5014843;28;20172;-69
2022/01/16 00:16:33;;;;;;;63.30;44.10;;;7.50;74.60;;;;;;5014790;28;20026;-71
2022/01/16 00:18:59;;;;;;;57.53;41.22;;;7.50;74.50;;;;;;5014651;28;20119;-66
2022/01/16 00:21:31;;;;;;;56.83;41.33;;;7.50;74.90;;;;;;5014778;28;20032;-66
2022/01/16 00:23:57;;;;;;;54.17;41.15;;;7.60;75.20;;;;;;5014665;28;20034;-72
2022/01/16 00:26:23;;;;;;;56.72;41.10;;;7.50;74.90;;;;;;5014580;28;20022;-69
2022/01/16 00:28:51;;;;;;;57.30;40.55;;;7.60;75.20;;;;;;5014477;28;20053;-70
2022/01/16 00:31:18;;;;;;;57.67;42.10;;;7.60;75.30;;;;;;5014524;28;20029;-70
2022/01/16 00:33:45;;;;;;;54.42;40.47;;;7.60;75.40;;;;;;5014776;28;20127;-70
2022/01/16 00:36:17;;;;;;;57.63;41.58;;;7.60;75.40;;;;;;5014736;28;20432;-71
2022/01/16 00:38:44;;;;;;;58.67;40.90;;;7.60;75.70;;;;;;5014319;28;20033;-68
2022/01/16 00:41:11;;;;;;;52.47;38.55;;;7.60;75.70;;;;;;5014414;28;20029;-69
2022/01/16 00:43:36;;;;;;;60.80;39.13;;;7.60;75.70;;;;;;5014317;28;20033;-68
2022/01/16 00:46:02;;;;;;;54.78;38.22;;;7.50;76.10;;;;;;5014284;28;20022;-64
2022/01/16 00:48:28;;;;;;;52.80;36.63;;;7.50;76.10;;;;;;5011959;28;20041;-67
2022/01/16 00:50:54;;;;;;;58.55;39.15;;;7.40;76.50;;;;;;5014216;28;20026;-66
2022/01/16 00:53:19;;;;;;;55.75;38.40;;;7.40;76.50;;;;;;5014086;28;20030;-66
2022/01/16 00:55:45;;;;;;;51.45;37.33;;;7.40;77.00;;;;;;5014137;28;20377;-66
2022/01/16 00:58:11;;;;;;;51.28;37.38;;;7.40;77.20;;;;;;5013917;28;20037;-65
2022/01/16 01:00:38;;;;;;;51.25;37.20;;;7.40;76.90;;;;;;5013981;28;20040;-67
2022/01/16 01:03:06;;;;;;;52.33;38.45;;;7.40;78.00;;;;;;5013977;28;20033;-67
2022/01/16 01:05:33;;;;;;;54.97;37.65;;;7.50;77.50;;;;;;5013911;28;20159;-67
2022/01/16 01:07:59;;;;;;;50.53;36.28;;;7.40;77.30;;;;;;5013556;28;20026;-66
2022/01/16 01:10:31;;;;;;;54.33;37.13;;;7.40;78.20;;;;;;5013942;28;20029;-65
2022/01/16 01:13:07;;;;;;;50.33;36.95;;;7.40;77.60;;;;;;5013580;28;20034;-67
2022/01/16 01:15:41;;;;;;;54.67;38.15;;;7.40;78.00;;;;;;5013783;28;20029;-67
2022/01/16 01:18:07;;;;;;;;;;;7.40;78.60;;;;;;5013864;28;20430;-67
2022/01/16 01:20:33;;;;;;;51.67;36.65;;;7.40;79.40;;;;;;5013141;28;19912;-68
2022/01/16 01:22:59;;;;;;;54.03;36.00;;;7.30;78.20;;;;;;5013273;28;20026;-66
2022/01/16 01:25:25;;;;;;;47.90;35.95;;;7.30;77.80;;;;;;5013379;28;20026;-66
2022/01/16 01:27:51;;;;;;;45.10;34.08;;;7.30;78.40;;;;;;5013441;28;20443;-67
2022/01/16 01:30:19;;;;;;;45.92;33.80;;;7.30;77.90;;;;;;5013603;28;20040;-69
2022/01/16 01:32:47;;;;;;;45.22;34.65;;;7.30;78.20;;;;;;5013373;28;20104;-66
2022/01/16 01:35:16;;;;;;;45.00;33.58;;;7.30;78.40;;;;;;5012154;28;20048;-67
2022/01/16 01:37:42;;;;;;;46.03;32.45;;;7.30;78.30;;;;;;5013243;28;20028;-69
2022/01/16 01:40:14;;;;;;;47.45;33.15;;;7.30;78.40;;;;;;5013466;28;20053;-69
2022/01/16 01:43:01;;;;;;;42.08;31.67;;;7.30;78.40;;;;;;5013397;28;20360;-66
2022/01/16 01:51:22;;;;;;;47.90;32.05;;;7.30;78.50;;;;;;5013499;28;20476;-68
2022/01/16 01:53:51;;;;;;;43.97;31.20;;;7.20;79.20;;;;;;5013275;28;20025;-71
2022/01/16 01:56:18;;;;;;;41.08;31.25;;;7.20;79.30;;;;;;5013003;28;20028;-67
2022/01/16 01:58:44;;;;;;;40.58;30.35;;;7.20;78.90;;;;;;5012969;28;20030;-67
2022/01/16 02:01:10;;;;;;;44.10;30.75;;;7.10;78.30;;;;;;5013186;28;20049;-68
2022/01/16 02:03:42;;;;;;;44.65;30.73;;;7.00;78.60;;;;;;5013116;28;20476;-66
2022/01/16 02:06:38;;;;;;;45.78;31.25;;;6.90;78.80;;;;;;5013172;28;20083;-67
2022/01/16 02:09:06;;;;;;;41.95;29.58;;;6.90;78.60;;;;;;5013133;28;20080;-68
2022/01/16 02:11:33;;;;;;;44.53;31.05;;;6.90;79.30;;;;;;5012883;28;20391;-67
2022/01/16 02:28:17;;;;;;;40.38;28.25;;;6.80;78.60;;;;;;5012799;28;20079;-68
2022/01/16 02:31:12;;;;;;;41.28;29.50;;;6.80;79.70;;;;;;5012808;28;20113;-67
2022/01/16 02:39:00;;;;;;;39.83;29.27;;;6.80;79.80;;;;;;5012864;28;20121;-66
2022/01/16 02:41:26;;;;;;;39.58;29.45;;;6.90;79.20;;;;;;5012643;28;20026;-70
2022/01/16 02:43:54;;;;;;;41.38;30.02;;;6.80;80.10;;;;;;5012400;28;20375;-66
2022/01/16 02:48:54;;;;;;;40.47;29.05;;;6.80;79.70;;;;;;5012135;28;20050;-68
2022/01/16 02:51:24;;;;;;;42.10;30.23;;;6.80;79.90;;;;;;5012545;28;20467;-67
2022/01/16 02:53:52;;;;;;;39.60;29.42;;;6.80;80.10;;;;;;5012645;28;20069;-69
2022/01/16 02:56:19;;;;;;;45.42;30.42;;;6.80;80.30;;;;;;5012996;28;20069;-68
2022/01/16 02:58:47;;;;;;;40.08;30.02;;;6.80;80.30;;;;;;5012911;28;20030;-67
2022/01/16 03:01:14;;;;;;;40.53;29.98;;;6.70;80.20;;;;;;5012965;28;20053;-69
2022/01/16 03:03:40;;;;;;;39.22;29.63;;;6.70;80.40;;;;;;5012742;28;20022;-66
2022/01/16 03:06:05;;;;;;;38.97;29.25;;;6.70;81.10;;;;;;5012458;28;20364;-69
2022/01/16 03:08:31;;;;;;;43.88;29.50;;;6.70;81.40;;;;;;5012296;28;20418;-69
2022/01/16 03:13:33;;;;;;;42.85;29.63;;;6.70;80.80;;;;;;5016007;28;20064;-66
2022/01/16 03:15:59;;;;;;;41.22;30.15;;;6.60;80.90;;;;;;5015940;28;20026;-65
2022/01/16 03:23:35;;;;;;;;;;;6.50;80.90;;;;;;5016381;28;20108;-65
2022/01/16 03:26:01;;;;;;;43.65;31.73;;;6.50;81.30;;;;;;5016201;28;19910;-67
2022/01/16 03:28:26;;;;;;;45.38;33.13;;;6.40;81.60;;;;;;5015548;28;20076;-67
2022/01/16 03:30:54;;;;;;;42.42;32.83;;;6.40;81.20;;;;;;5014309;28;20022;-68
2022/01/16 03:33:20;;;;;;;44.25;32.65;;;6.40;81.40;;;;;;5015597;28;20164;-68
2022/01/16 03:35:49;;;;;;;42.60;32.95;;;6.40;81.20;;;;;;5015428;28;20017;-69
2022/01/16 03:38:15;;;;;;;45.30;33.40;;;6.40;81.20;;;;;;5015468;28;20056;-69
2022/01/16 03:40:42;;;;;;;43.08;31.25;;;6.40;81.40;;;;;;5015222;28;20105;-70
2022/01/16 03:43:14;;;;;;;43.13;31.33;;;6.40;81.70;;;;;;5015486;28;20030;-71
2022/01/16 03:45:42;;;;;;;46.58;32.72;;;6.40;81.30;;;;;;5015472;28;20029;-68
2022/01/16 03:48:08;;;;;;;42.72;31.65;;;6.40;81.70;;;;;;5015067;28;20108;-66
2022/01/16 03:50:34;;;;;;;43.72;30.63;;;6.40;81.50;;;;;;5015955;28;20111;-68
2022/01/16 03:53:00;;;;;;;41.75;31.27;;;6.40;81.60;;;;;;5015193;28;20065;-67
2022/01/16 03:55:26;;;;;;;44.72;30.88;;;6.40;81.60;;;;;;5015311;28;20108;-66
2022/01/16 03:57:51;;;;;;;45.60;31.00;;;6.30;81.60;;;;;;5015040;28;20535;-65
2022/01/16 04:00:17;;;;;;;40.65;29.65;;;6.30;81.90;;;;;;5015063;28;20026;-65
2022/01/16 04:02:43;;;;;;;38.50;29.20;;;6.20;81.80;;;;;;5014958;28;20105;-68
2022/01/16 04:05:09;;;;;;;39.80;29.85;;;6.20;82.40;;;;;;5015066;28;20034;-66
2022/01/16 04:07:35;;;;;;;40.83;29.38;;;6.20;82.20;;;;;;5014967;28;20026;-66
2022/01/16 04:10:06;;;;;;;43.55;29.88;;;6.20;82.00;;;;;;5014889;28;20506;-67
2022/01/16 04:12:34;;;;;;;39.55;29.83;;;6.20;81.80;;;;;;5014765;28;20046;-65
2022/01/16 04:17:25;;;;;;;41.80;29.60;;;6.30;82.00;;;;;;5014918;28;20104;-66
2022/01/16 04:19:52;;;;;;;41.42;31.73;;;6.20;81.80;;;;;;5014427;28;20164;-66
2022/01/16 04:22:19;;;;;;;43.72;31.27;;;6.20;82.40;;;;;;5014640;28;20030;-65
2022/01/16 04:24:45;;;;;;;42.95;31.35;;;6.20;82.10;;;;;;5014775;28;20112;-66
2022/01/16 04:27:11;;;;;;;41.80;31.15;;;6.10;81.90;;;;;;5014934;28;20065;-66
2022/01/16 04:29:38;;;;;;;43.65;30.70;;;6.10;82.70;;;;;;5014658;28;20564;-66
2022/01/16 04:32:05;;;;;;;41.45;31.58;;;6.00;82.20;;;;;;5014477;28;20060;-68
2022/01/16 04:34:31;;;;;;;37.85;29.55;;;6.00;82.20;;;;;;5014608;28;20026;-68
2022/01/16 04:36:57;;;;;;;42.42;30.85;;;6.00;82.50;;;;;;5014702;28;20033;-68
2022/01/16 04:39:30;;;;;;;42.38;30.38;;;6.00;82.40;;;;;;5046537;28;20468;-65
2022/01/16 04:44:40;;;;;;;40.08;30.08;;;6.00;82.70;;;;;;5015049;28;20048;-70
2022/01/16 04:47:08;;;;;;;39.05;29.33;;;6.00;82.20;;;;;;5014483;28;20026;-70
2022/01/16 04:49:34;;;;;;;42.28;29.27;;;6.00;82.30;;;;;;5014275;28;20046;-70
2022/01/16 04:51:59;;;;;;;40.85;30.35;;;5.90;82.60;;;;;;5014150;28;20550;-70
2022/01/16 04:54:25;;;;;;;40.55;29.75;;;5.90;82.40;;;;;;5014414;28;20113;-68
2022/01/16 04:56:52;;;;;;;38.28;29.25;;;5.90;82.70;;;;;;5014078;28;20022;-66
2022/01/16 04:59:18;;;;;;;39.28;29.60;;;5.90;82.70;;;;;;5014090;28;20101;-70
2022/01/16 05:01:44;;;;;;;37.58;28.52;;;5.90;83.00;;;;;;5014167;28;20026;-70
2022/01/16 05:04:10;;;;;;;40.38;28.73;;;5.90;82.80;;;;;;5014002;28;20100;-71
2022/01/16 05:06:36;;;;;;;38.05;28.48;;;5.90;82.80;;;;;;5013651;28;20426;-71
2022/01/16 05:09:02;;;;;;;39.80;29.23;;;6.00;82.90;;;;;;5013834;28;20084;-70
2022/01/16 05:11:27;;;;;;;36.90;28.73;;;6.00;82.50;;;;;;5013634;28;20037;-65
2022/01/16 05:16:35;;;;;;;41.30;29.50;;;5.90;83.30;;;;;;5013840;28;20507;-69
2022/01/16 05:19:12;;;;;;;38.85;29.05;;;6.00;83.00;;;;;;5013527;28;20026;-66
2022/01/16 05:21:39;;;;;;;41.40;30.20;;;6.00;83.10;;;;;;5013378;28;20152;-69
2022/01/16 05:24:09;;;;;;;37.58;29.73;;;6.00;83.20;;;;;;5013694;28;20029;-68
2022/01/16 05:26:36;;;;;;;39.75;30.42;;;6.00;83.10;;;;;;5013385;28;20546;-69
2022/01/16 05:29:03;;;;;;;43.80;30.02;;;6.00;83.00;;;;;;5013418;28;20022;-69
2022/01/16 05:31:29;;;;;;;40.25;29.30;;;6.00;82.80;;;;;;5013346;28;20033;-68
2022/01/16 05:33:54;;;;;;;37.85;28.65;;;6.00;82.80;;;;;;5012789;28;20026;-66
2022/01/16 05:36:21;;;;;;;39.60;29.00;;;6.00;83.00;;;;;;5013603;28;20033;-69
2022/01/16 05:38:48;;;;;;;37.90;28.48;;;6.00;82.80;;;;;;5013262;28;20498;-69
2022/01/16 05:41:14;;;;;;;41.30;29.00;;;6.00;83.20;;;;;;5013454;28;20080;-69
2022/01/16 05:43:40;;;;;;;41.95;29.65;;;5.90;83.30;;;;;;5013099;28;20022;-66
2022/01/16 05:46:05;;;;;;;39.78;28.45;;;5.90;83.20;;;;;;5013359;28;20345;-65
2022/01/16 05:48:31;;;;;;;37.03;28.95;;;5.90;83.30;;;;;;5011715;28;20491;-67
2022/01/16 05:50:57;;;;;;;37.90;28.27;;;5.90;84.00;;;;;;5012879;28;20068;-67
2022/01/16 05:53:23;;;;;;;38.92;28.92;;;5.90;83.20;;;;;;5013154;28;20026;-66
2022/01/16 05:55:49;;;;;;;39.25;29.00;;;5.90;83.90;;;;;;5013141;28;20030;-66
2022/01/16 05:58:15;;;;;;;38.63;28.40;;;5.90;83.90;;;;;;5012967;28;20076;-68
2022/01/16 06:00:41;;;;;;;38.70;29.95;;;5.90;83.80;;;;;;5013173;28;20434;-68
2022/01/16 06:03:09;;;;;;;39.20;28.15;;;5.90;83.80;;;;;;5013169;28;20511;-66
2022/01/16 06:05:35;;;;;;;38.67;29.15;;;5.80;83.90;;;;;;5012934;28;20026;-66
2022/01/16 06:08:07;;;;;;;37.78;28.98;;;5.80;84.00;;;;;;5013028;28;20524;-69
2022/01/16 06:10:32;;;;;;;42.55;31.75;;;5.70;84.80;;;;;;5013100;28;20109;-69
2022/01/16 06:12:58;;;;;;;40.30;29.55;;;5.70;84.40;;;;;;5012848;28;20109;-68
2022/01/16 06:15:24;;;;;;;43.10;29.25;;;5.70;84.20;;;;;;5012979;28;20026;-67
2022/01/16 06:17:51;;;;;;;39.83;30.52;;;5.70;84.80;;;;;;5012973;28;20033;-70
2022/01/16 06:20:17;;;;;;;48.33;31.05;;;5.70;84.30;;;;;;5013019;28;20018;-68
2022/01/16 06:22:44;;;;;;;42.83;32.30;;;5.70;84.50;;;;;;5011415;28;20029;-70
2022/01/16 06:25:10;;;;;;;42.15;31.17;;;5.70;84.70;;;;;;5012740;28;20037;-65
2022/01/16 06:27:36;;;;;;;43.15;32.28;;;5.70;84.30;;;;;;5012672;28;20117;-65
2022/01/16 06:30:05;;;;;;;42.72;32.25;;;5.70;84.20;;;;;;5012790;28;20049;-65
2022/01/16 06:32:31;;;;;;;41.70;31.95;;;5.70;84.70;;;;;;5012549;28;20038;-69
2022/01/16 06:34:56;;;;;;;39.63;30.10;;;5.70;84.10;;;;;;5012444;28;20123;-66
2022/01/16 06:37:22;;;;;;;46.85;32.60;;;5.70;84.30;;;;;;5012604;28;20029;-66
2022/01/16 06:39:48;;;;;;;44.40;33.17;;;5.70;84.50;;;;;;5012596;28;20026;-66
2022/01/16 06:42:14;;;;;;;46.85;33.90;;;5.70;84.50;;;;;;5012678;28;20034;-67
2022/01/16 06:44:39;;;;;;;44.70;33.10;;;5.70;84.40;;;;;;5012657;28;20026;-69
2022/01/16 06:47:05;;;;;;;46.20;34.15;;;5.60;84.20;;;;;;5014509;28;20062;-67
2022/01/16 06:49:31;;;;;;;44.05;33.33;;;5.60;84.40;;;;;;5016065;28;20053;-70
2022/01/16 06:51:56;;;;;;;44.75;33.22;;;5.60;84.50;;;;;;5014996;28;20032;-65
2022/01/16 06:54:22;;;;;;;44.20;33.97;;;5.60;84.70;;;;;;5016438;28;20109;-70
2022/01/16 06:56:48;;;;;;;49.47;34.05;;;5.60;84.30;;;;;;5016210;28;20072;-67
2022/01/16 06:59:13;;;;;;;44.30;33.50;;;5.60;84.50;;;;;;5015941;28;20080;-70
2022/01/16 07:01:39;;;;;;;45.95;33.58;;;5.60;84.90;;;;;;5016278;28;20038;-69
2022/01/16 07:04:05;;;;;;;45.05;33.78;;;5.60;84.70;;;;;;5015896;28;20104;-71
2022/01/16 07:06:31;;;;;;;45.47;34.35;;;5.60;85.00;;;;;;5016159;28;20105;-66
2022/01/16 07:08:57;;;;;;;43.97;33.53;;;5.60;84.60;;;;;;5015689;28;20105;-70
2022/01/16 07:11:23;;;;;;;43.25;32.63;;;5.70;84.80;;;;;;5014546;28;20034;-68
2022/01/16 07:13:49;;;;;;;45.03;32.97;;;5.90;84.70;;;;;;5015952;28;20070;-66
2022/01/16 07:16:15;;;;;;;41.88;30.13;;;6.00;84.40;;;;;;5015527;28;20034;-67
2022/01/16 07:18:40;;;;;;;48.17;31.95;;;6.10;84.30;;;;;;5015739;28;20025;-66
2022/01/16 07:21:12;;;;;;;40.42;30.48;;;6.20;84.20;;;;;;5015645;28;20030;-66
2022/01/16 07:23:41;;;;;;;42.92;30.77;;;6.20;83.70;;;;;;5015555;28;20041;-66
2022/01/16 07:26:07;;;;;;;39.75;30.88;;;6.30;84.40;;;;;;5015577;28;20075;-66
2022/01/16 07:28:32;;;;;;;38.90;28.77;;;6.40;84.10;;;;;;5015753;28;20113;-69
2022/01/16 07:30:58;;;;;;;38.13;28.48;;;6.50;84.00;;;;;;5015759;28;20513;-67
2022/01/16 07:33:24;;;;;;;39.22;29.17;;;6.60;83.50;;;;;;5015642;28;20045;-67
2022/01/16 07:35:50;;;;;;;41.00;29.10;;;6.70;83.40;;;;;;5014988;28;20022;-66
2022/01/16 07:38:15;;;;;;;40.53;29.98;;;6.80;82.90;;;;;;5015170;28;20030;-66
2022/01/16 07:40:41;;;;;;;40.58;29.40;;;6.80;83.00;;;;;;5015289;28;20340;-65
2022/01/16 07:43:07;;;;;;;36.88;27.63;;;6.90;83.40;;;;;;5015192;28;20462;-65
2022/01/16 07:45:33;;;;;;;37.38;28.83;;;7.00;82.90;;;;;;5015815;28;20029;-66
2022/01/16 07:47:59;;;;;;;38.17;27.40;;;7.00;83.00;;;;;;5015042;28;20095;-64
2022/01/16 07:50:25;;;;;;;35.33;27.38;;;7.10;82.50;;;;;;5013873;28;20487;-66
2022/01/16 07:52:51;;;;;;;36.85;27.02;;;7.10;82.40;;;;;;5014843;28;20029;-68
2022/01/16 07:55:17;;;;;;;37.03;26.40;;;7.10;82.50;;;;;;5015071;28;20076;-68
2022/01/16 07:57:43;;;;;;;35.58;26.70;;;7.10;82.40;;;;;;5014359;28;20068;-66
2022/01/16 08:00:10;;;;;;;33.50;25.92;;;7.10;82.40;;;;;;5029936;28;20109;-68
2022/01/16 08:02:36;;;;;;;36.97;26.70;;;7.10;82.60;;;;;;5030183;28;20032;-67
2022/01/16 08:05:02;;;;;;;40.35;28.55;;;7.10;82.60;;;;;;5014835;28;20022;-66
2022/01/16 08:07:27;;;;;;;37.95;26.63;;;7.10;82.70;;;;;;5014910;28;20403;-66
2022/01/16 08:09:53;;;;;;;43.85;29.05;;;7.00;82.70;;;;;;5014967;28;20050;-66
2022/01/16 08:12:19;;;;;;;35.25;28.23;;;7.00;82.60;;;;;;5014765;28;20456;-66
2022/01/16 08:14:44;;;;;;;42.10;28.80;;;7.10;82.80;;;;;;5014703;28;20029;-66
2022/01/16 08:17:10;;;;;;;39.42;28.45;;;7.10;83.10;;;;;;5014895;28;20026;-68
2022/01/16 08:19:36;;;;;;;38.08;28.02;;;7.10;82.90;;;;;;5014552;28;20022;-68
2022/01/16 08:22:02;;;;;;;36.53;27.65;;;7.10;83.10;;;;;;5014542;28;20471;-66
2022/01/16 08:24:28;;;;;;;33.97;26.38;;;7.20;83.30;;;;;;5014582;28;20022;-66
2022/01/16 08:26:53;;;;;;;35.55;25.55;;;7.20;83.30;;;;;;5014290;28;20022;-68
2022/01/16 08:29:20;;;;;;;33.35;25.80;;;7.20;83.90;;;;;;5014072;28;20037;-66
2022/01/16 08:31:46;;;;;;;33.88;25.58;;;7.20;83.60;;;;;;5014212;28;20112;-68
2022/01/16 08:34:11;;;;;;;31.77;25.02;;;7.30;83.20;;;;;;5014095;28;20105;-69
2022/01/16 08:36:37;;;;;;;34.65;25.33;;;7.30;83.40;;;;;;5014257;28;20069;-65
2022/01/16 08:39:06;;;;;;;34.35;24.67;;;7.30;83.40;;;;;;5029425;28;20022;-67
2022/01/16 08:41:32;;;;;;;30.13;24.42;;;7.40;83.80;;;;;;5012433;28;20368;-71
2022/01/16 08:43:58;;;;;;;35.50;25.10;;;7.40;83.80;;;;;;5013450;28;20029;-68
2022/01/16 08:46:24;;;;;;;32.92;24.48;;;7.50;84.10;;;;;;5013945;28;20464;-67
2022/01/16 08:48:51;;;;;;;32.22;24.73;;;7.50;84.00;;;;;;5013376;28;20054;-68
2022/01/16 08:51:19;;;;;;;28.67;23.13;;;7.60;84.00;;;;;;5013712;28;20042;-70
2022/01/16 08:53:45;;;;;;;33.80;24.45;;;7.70;83.60;;;;;;5013955;28;20025;-69
2022/01/16 08:56:13;;;;;;;32.08;23.60;;;7.70;84.20;;;;;;5013681;28;20026;-68
2022/01/16 08:58:39;;;;;;;30.38;22.42;;;7.80;84.30;;;;;;5013505;28;20030;-67
2022/01/16 09:01:04;;;;;;;33.13;23.92;;;7.90;84.50;;;;;;5012090;28;20030;-68
2022/01/16 09:03:30;;;;;;;31.10;22.35;;;7.90;84.00;;;;;;5013686;28;20025;-70
2022/01/16 09:05:58;;;;;;;28.02;22.98;;;8.00;84.20;;;;;;5013473;28;20380;-66
2022/01/16 09:08:24;;;;;;;33.25;24.98;;;8.00;84.60;;;;;;5013322;28;20029;-71
2022/01/16 09:10:50;;;;;;;31.73;24.70;;;8.00;84.50;;;;;;5013514;28;20022;-68
2022/01/16 09:13:16;;;;;;;33.85;25.48;;;8.10;84.50;;;;;;5014097;28;20168;-71
2022/01/16 09:15:47;;;;;;;34.42;23.98;;;8.10;84.70;;;;;;5013727;28;20034;-70
2022/01/16 09:18:14;;;;;;;32.50;23.40;;;8.20;84.90;;;;;;5013748;28;20391;-69
2022/01/16 09:20:40;;;;;;;31.00;22.90;;;8.20;85.00;;;;;;5013676;28;20026;-69
2022/01/16 09:23:07;;;;;;;31.15;23.75;;;8.30;84.80;;;;;;5013510;28;20538;-70
2022/01/16 09:25:32;;;;;;;31.35;23.38;;;8.30;84.70;;;;;;5013405;28;20034;-71
2022/01/16 09:27:58;;;;;;;29.90;23.52;;;8.40;84.30;;;;;;5013519;28;20037;-71
2022/01/16 09:30:25;;;;;;;30.38;23.48;;;8.50;84.60;;;;;;5013836;28;20037;-70
2022/01/16 09:32:51;;;;;;;31.85;24.50;;;8.60;84.50;;;;;;5013464;28;20044;-72
2022/01/16 09:35:17;;;;;;;29.73;22.63;;;8.70;84.20;;;;;;5013280;28;20054;-71
2022/01/16 09:37:44;;;;;;;31.92;23.83;;;8.80;84.00;;;;;;5013170;28;20030;-69
2022/01/16 09:40:12;;;;;;;29.60;22.77;;;8.80;83.80;;;;;;5013825;28;20054;-70
2022/01/16 09:42:38;;;;;;;30.88;24.00;;;8.90;83.50;;;;;;5011761;28;20038;-71
2022/01/16 09:45:07;;;;;;;31.63;24.13;;;8.90;83.10;;;;;;5013299;28;20372;-71
2022/01/16 09:47:33;;;;;;;35.10;23.63;;;9.10;82.90;;;;;;5013136;28;20115;-69
2022/01/16 09:49:59;;;;;;;29.80;22.17;;;9.10;82.60;;;;;;5012650;28;20069;-67
2022/01/16 09:52:25;;;;;;;26.73;21.23;;;9.20;82.10;;;;;;5012679;28;20096;-66
2022/01/16 09:54:51;;;;;;;30.27;22.13;;;9.30;82.00;;;;;;5012646;28;20103;-67
2022/01/16 09:57:17;;;;;;;30.05;22.08;;;9.40;81.70;;;;;;5012730;28;20026;-66
2022/01/16 09:59:45;;;;;;;27.42;21.63;;;9.50;81.30;;;;;;5012854;28;20037;-65
2022/01/16 10:02:11;;;;;;;28.83;21.05;;;9.60;80.90;;;;;;5012584;28;20118;-67
2022/01/16 10:04:40;;;;;;;27.27;21.48;;;9.70;80.60;;;;;;5012545;28;20026;-67
2022/01/16 10:07:18;;;;;;;25.25;19.65;;;9.80;79.80;;;;;;5012617;28;20029;-67
2022/01/16 10:10:03;;;;;;;26.55;20.27;;;9.90;79.60;;;;;;5012662;28;20068;-67
2022/01/16 10:12:29;;;;;;;24.92;20.00;;;10.00;78.40;;;;;;5012458;28;20053;-66
2022/01/16 10:14:54;;;;;;;24.48;18.92;;;10.10;77.90;;;;;;5012709;28;20490;-68
2022/01/16 10:17:22;;;;;;;25.63;19.02;;;10.20;77.70;;;;;;5011297;28;20033;-68
2022/01/16 10:20:02;;;;;;;26.02;20.63;;;10.30;77.20;;;;;;5027605;28;20442;-65
2022/01/16 10:22:43;;;;;;;26.40;20.88;;;10.40;76.80;;;;;;5016602;28;20117;-67
2022/01/16 10:25:10;;;;;;;25.27;18.98;;;10.40;76.40;;;;;;5016465;28;20040;-68
2022/01/16 10:27:41;;;;;;;26.80;19.55;;;10.50;75.40;;;;;;5016829;28;20030;-67
2022/01/16 10:30:12;;;;;;;26.48;20.60;;;10.60;74.90;;;;;;5016607;28;20971;-66
2022/01/16 10:32:40;;;;;;;27.15;20.02;;;10.70;74.70;;;;;;5016709;28;20050;-66
2022/01/16 10:35:15;;;;;;;26.85;21.38;;;10.80;74.00;;;;;;5016752;28;20029;-68
2022/01/16 10:37:43;;;;;;;26.50;19.73;;;10.90;74.00;;;;;;5015038;28;20044;-66
2022/01/16 10:40:15;;;;;;;27.48;21.33;;;11.00;73.30;;;;;;5016245;28;20022;-67
2022/01/16 10:42:47;;;;;;;27.05;19.95;;;11.00;73.10;;;;;;5016431;28;20037;-70
2022/01/16 10:45:16;;;;;;;26.23;20.77;;;11.10;73.40;;;;;;5014406;28;20022;-68
2022/01/16 10:47:53;;;;;;;32.17;22.85;;;11.20;73.30;;;;;;5015722;28;20033;-69
2022/01/16 10:50:31;;;;;;;26.48;21.40;;;11.30;73.00;;;;;;5014152;28;20053;-68
2022/01/16 10:53:01;;;;;;;28.73;20.88;;;11.40;72.70;;;;;;5015129;28;20088;-68
2022/01/16 10:55:47;;;;;;;25.10;20.77;;;11.50;73.00;;;;;;5015834;28;20128;-70
2022/01/16 10:58:18;;;;;;;30.15;21.88;;;11.50;72.30;;;;;;5015410;28;20435;-66
2022/01/16 11:00:45;;;;;;;24.75;19.90;;;11.60;71.70;;;;;;5015740;28;20397;-70
2022/01/16 11:03:13;;;;;;;24.05;19.13;;;11.60;70.90;;;;;;5015657;28;20032;-66
2022/01/16 11:05:43;;;;;;;22.13;17.70;;;11.70;70.00;;;;;;5015397;28;20041;-66
2022/01/16 11:08:17;;;;;;;23.73;17.63;;;11.70;69.90;;;;;;5015409;28;20018;-68
2022/01/16 11:10:45;;;;;;;23.00;17.30;;;11.80;69.70;;;;;;5015362;28;20018;-68
2022/01/16 11:13:14;;;;;;;25.38;18.10;;;11.90;69.30;;;;;;5014930;28;20042;-68
2022/01/16 11:15:43;;;;;;;23.52;17.35;;;11.90;69.20;;;;;;5015032;28;20026;-68
2022/01/16 11:18:11;;;;;;;21.88;16.98;;;12.00;69.10;;;;;;5014923;28;20501;-67
2022/01/16 11:20:39;;;;;;;20.42;17.00;;;12.10;68.80;;;;;;5015294;28;20037;-69
2022/01/16 11:23:29;;;;;;;22.55;17.20;;;12.20;68.50;;;;;;5015069;28;20026;-66
2022/01/16 11:26:15;;;;;;;22.15;16.35;;;12.20;67.80;;;;;;5015012;28;20029;-68
2022/01/16 11:28:41;;;;;;;20.20;17.08;;;12.30;67.80;;;;;;5014896;28;20022;-66
2022/01/16 11:31:09;;;;;;;22.35;16.17;;;12.40;66.90;;;;;;5014739;28;20097;-67
2022/01/16 11:33:37;;;;;;;25.77;18.38;;;12.50;66.90;;;;;;5014328;28;20113;-67
2022/01/16 11:36:16;;;;;;;21.27;17.67;;;12.50;65.80;;;;;;5014748;28;20044;-66
2022/01/16 11:38:49;;;;;;;23.38;17.23;;;12.60;65.90;;;;;;5014212;28;20041;-67
2022/01/16 11:41:16;;;;;;;22.67;17.35;;;12.70;65.60;;;;;;5013332;28;20038;-67
2022/01/16 11:43:51;;;;;;;24.45;18.25;;;12.80;65.40;;;;;;5014527;28;20037;-68
2022/01/16 11:46:21;;;;;;;21.25;16.67;;;12.90;65.40;;;;;;5014871;28;20041;-67
2022/01/16 11:49:01;;;;;;;24.63;17.92;;;13.00;65.40;;;;;;5013191;28;20054;-66
2022/01/16 11:51:36;;;;;;;25.80;18.02;;;13.00;65.00;;;;;;5014489;28;20017;-67
2022/01/16 11:54:04;;;;;;;24.98;18.67;;;13.10;64.60;;;;;;5014436;28;20030;-66
2022/01/16 11:56:42;;;;;;;20.85;17.35;;;13.20;63.80;;;;;;5014374;28;20029;-69
2022/01/16 11:59:29;;;;;;;28.23;17.08;;;13.30;63.90;;;;;;5014365;28;20030;-68
2022/01/16 12:01:57;;;;;;;24.23;17.33;;;13.30;63.60;;;;;;5014407;28;20368;-66
2022/01/16 12:04:29;;;;;;;19.50;16.63;;;13.50;62.60;;;;;;5014565;28;20076;-67
2022/01/16 12:07:05;;;;;;;21.08;17.15;;;13.50;62.20;;;;;;5014595;28;20022;-68
2022/01/16 12:12:22;;;;;;;18.73;14.93;;;13.60;61.70;;;;;;5014688;28;20030;-66
2022/01/16 12:15:00;;;;;;;20.23;16.05;;;13.70;61.50;;;;;;5013797;28;20048;-67
2022/01/16 12:17:41;;;;;;;24.75;15.57;;;13.70;61.80;;;;;;5014239;28;20084;-68
2022/01/16 12:20:13;;;;;;;19.30;15.43;;;13.80;61.30;;;;;;5014684;28;20032;-66
2022/01/16 12:22:50;;;;;;;18.48;14.63;;;13.90;60.70;;;;;;5014747;28;20102;-71
2022/01/16 12:25:30;;;;;;;20.98;14.68;;;14.00;60.00;;;;;;5014466;28;20049;-68
2022/01/16 12:28:15;;;;;;;20.42;14.90;;;14.00;59.90;;;;;;5014516;28;20379;-69
2022/01/16 12:30:55;;;;;;;20.20;14.75;;;14.10;59.30;;;;;;5013777;28;20029;-68
2022/01/16 12:33:45;;;;;;;18.23;14.82;;;14.10;59.90;;;;;;5012539;28;20041;-66
2022/01/16 12:36:16;;;;;;;18.25;14.57;;;14.20;59.60;;;;;;5013936;28;20087;-70
2022/01/16 12:38:43;;;;;;;19.92;14.95;;;14.30;59.00;;;;;;5013609;28;20037;-72
2022/01/16 12:41:16;;;;;;;20.20;15.70;;;14.40;58.70;;;;;;5013489;28;20033;-68
2022/01/16 12:43:49;;;;;;;17.17;14.30;;;14.50;58.70;;;;;;5012299;28;20052;-68
2022/01/16 12:46:21;;;;;;;20.50;15.18;;;14.50;58.70;;;;;;5013667;28;20378;-68
2022/01/16 12:48:51;;;;;;;18.70;15.70;;;14.50;58.70;;;;;;5012996;28;20054;-67
2022/01/16 12:51:18;;;;;;;18.95;15.90;;;14.50;58.60;;;;;;5013401;28;20468;-68
2022/01/16 12:53:50;;;;;;;22.05;16.60;;;14.50;58.70;;;;;;5013405;28;20057;-68
2022/01/16 12:56:22;;;;;;;19.23;15.45;;;14.60;58.70;;;;;;5013650;28;20033;-67
2022/01/16 12:58:50;;;;;;;22.45;15.73;;;14.60;58.70;;;;;;5013427;28;20048;-71
2022/01/16 13:01:16;;;;;;;20.70;15.77;;;14.70;58.70;;;;;;5013792;28;20160;-69
2022/01/16 13:03:44;;;;;;;19.17;16.33;;;14.70;58.60;;;;;;5013826;28;20054;-69
2022/01/16 13:06:23;;;;;;;24.48;17.48;;;14.80;58.70;;;;;;5014307;28;20057;-70
2022/01/16 13:08:55;;;;;;;21.58;17.23;;;14.80;58.50;;;;;;5013476;28;20018;-69
2022/01/16 13:11:22;;;;;;;23.30;16.67;;;14.90;58.40;;;;;;5013732;28;20053;-69
2022/01/16 13:13:49;;;;;;;22.40;16.70;;;15.00;58.20;;;;;;5013375;28;20030;-68
2022/01/16 13:16:24;;;;;;;21.27;16.33;;;15.00;58.30;;;;;;5013671;28;20073;-68
2022/01/16 13:19:00;;;;;;;19.70;16.13;;;15.10;58.30;;;;;;5013461;28;20034;-67
2022/01/16 13:21:33;;;;;;;22.60;15.32;;;15.10;58.30;;;;;;5013487;28;20018;-67
2022/01/16 13:23:59;;;;;;;20.42;16.35;;;15.10;57.90;;;;;;5013515;28;20041;-66
2022/01/16 13:26:26;;;;;;;18.90;15.82;;;15.10;58.00;;;;;;5013225;28;20088;-67
2022/01/16 13:29:03;;;;;;;24.00;16.52;;;15.10;57.90;;;;;;5012910;28;20537;-66
2022/01/16 13:31:29;;;;;;;18.90;15.95;;;15.10;57.60;;;;;;5013602;28;20080;-68